Time;durP1;ratioP1;P1;durP2;ratioP2;P2;SDS_P1;SDS_P2;PMS_P1;PMS_P2;Temp;Humidity;BMP_temperature;BMP_pressure;BME280_temperature;BME280_humidity;BME280_pressure;Samples;Min_cycle;Max_cycle;Signal;HPM_P1;HPM_P2
2024/01/11 00:01:23;;;;;;;3.85;1.05;;;-5.60;99.90;;;;;;5052766;28;20232;-70
2024/01/11 00:03:49;;;;;;;0.10;0.10;;;-5.60;99.90;;;;;;5061791;28;20387;-70
2024/01/11 00:06:14;;;;;;;0.65;0.65;;;-5.60;99.90;;;;;;5061716;28;20043;-70
2024/01/11 00:08:40;;;;;;;2.42;0.75;;;-5.70;99.90;;;;;;5063049;28;20028;-70
2024/01/11 00:11:05;;;;;;;1.23;1.13;;;-5.60;99.90;;;;;;5044990;28;20036;-70
2024/01/11 00:13:31;;;;;;;0.10;0.10;;;-5.60;99.90;;;;;;5047595;28;20040;-70
2024/01/11 00:15:57;;;;;;;0.63;0.63;;;-5.60;99.90;;;;;;5059598;28;20037;-70
2024/01/11 00:18:22;;;;;;;2.63;1.30;;;-5.60;99.90;;;;;;5067923;28;20036;-70
2024/01/11 00:20:48;;;;;;;2.78;1.40;;;-5.60;99.90;;;;;;5051680;28;20044;-70
2024/01/11 00:23:13;;;;;;;0.25;0.25;;;-5.70;99.90;;;;;;5058856;28;20510;-71
2024/01/11 00:25:39;;;;;;;0.55;0.55;;;-5.70;99.90;;;;;;5064862;28;20458;-70
2024/01/11 00:28:04;;;;;;;0.80;0.80;;;-5.70;99.90;;;;;;5085411;28;20658;-70
2024/01/11 00:30:30;;;;;;;1.38;1.38;;;-5.70;99.90;;;;;;5064847;28;20119;-70
2024/01/11 00:32:55;;;;;;;1.02;0.93;;;-5.70;99.90;;;;;;5059155;28;20048;-70
2024/01/11 00:35:21;;;;;;;5.15;1.75;;;-5.70;99.90;;;;;;5063562;28;20044;-70
2024/01/11 00:37:46;;;;;;;1.67;1.58;;;-5.70;99.90;;;;;;5057468;28;20074;-71
2024/01/11 00:40:12;;;;;;;1.08;1.05;;;-5.70;99.90;;;;;;5070264;28;20459;-71
2024/01/11 00:42:37;;;;;;;6.75;2.58;;;-5.70;99.90;;;;;;5060004;28;20467;-71
2024/01/11 00:45:04;;;;;;;0.75;0.73;;;-5.80;99.90;;;;;;5065261;28;20032;-71
2024/01/11 00:47:29;;;;;;;3.35;2.38;;;-5.80;99.90;;;;;;5059674;28;20050;-71
2024/01/11 00:49:55;;;;;;;1.27;1.20;;;-5.80;99.90;;;;;;5047329;28;20029;-71
2024/01/11 00:52:21;;;;;;;1.85;1.23;;;-5.70;99.90;;;;;;5060902;28;20040;-71
2024/01/11 00:54:46;;;;;;;4.18;2.70;;;-5.50;99.90;;;;;;5059190;28;20037;-71
2024/01/11 00:57:12;;;;;;;2.28;1.77;;;-5.50;99.90;;;;;;5064464;28;20075;-70
2024/01/11 00:59:39;;;;;;;2.78;2.60;;;-5.50;99.90;;;;;;5064113;28;20044;-70
2024/01/11 01:02:05;;;;;;;2.65;1.67;;;-5.50;99.90;;;;;;5065498;28;20133;-71
2024/01/11 01:04:30;;;;;;;1.67;1.58;;;-5.60;99.90;;;;;;5066566;28;20502;-71
2024/01/11 01:06:56;;;;;;;2.92;1.67;;;-5.60;99.90;;;;;;5066020;28;20048;-71
2024/01/11 01:09:21;;;;;;;2.05;1.58;;;-5.70;99.90;;;;;;5065223;28;20037;-71
2024/01/11 01:11:47;;;;;;;0.85;0.45;;;-5.80;99.90;;;;;;5064878;28;20040;-71
2024/01/11 01:14:12;;;;;;;1.63;1.38;;;-5.80;99.90;;;;;;5064288;28;20245;-71
2024/01/11 01:16:38;;;;;;;2.28;1.58;;;-5.90;99.90;;;;;;5065089;28;20052;-71
2024/01/11 01:19:04;;;;;;;0.95;0.90;;;-5.90;99.90;;;;;;5059546;28;20044;-71
2024/01/11 01:21:29;;;;;;;1.88;0.95;;;-5.90;99.90;;;;;;5091700;27;20033;-71
2024/01/11 01:23:55;;;;;;;1.73;1.63;;;-5.90;99.90;;;;;;5067159;28;20118;-71
2024/01/11 01:26:20;;;;;;;2.78;2.58;;;-6.00;99.90;;;;;;5073211;28;20111;-71
2024/01/11 01:28:46;;;;;;;2.65;2.45;;;-5.90;99.90;;;;;;5065331;28;20808;-71
2024/01/11 01:31:11;;;;;;;8.02;2.47;;;-5.90;99.90;;;;;;5069992;28;20453;-71
2024/01/11 01:33:37;;;;;;;1.15;1.15;;;-5.90;99.90;;;;;;5049703;28;20475;-71
2024/01/11 01:36:03;;;;;;;3.03;2.00;;;-6.00;99.90;;;;;;5064650;28;20067;-71
2024/01/11 01:38:30;;;;;;;6.40;2.25;;;-6.00;99.90;;;;;;5068268;28;20068;-71
2024/01/11 01:40:55;;;;;;;2.03;1.48;;;-6.00;99.90;;;;;;5053502;28;20063;-71
2024/01/11 01:43:21;;;;;;;0.88;0.88;;;-6.00;99.90;;;;;;5066005;28;20044;-71
2024/01/11 01:45:47;;;;;;;1.77;1.65;;;-6.00;99.90;;;;;;5047696;28;20578;-71
2024/01/11 01:48:13;;;;;;;9.52;2.00;;;-6.00;99.90;;;;;;5067800;28;20489;-71
2024/01/11 01:50:38;;;;;;;0.88;0.88;;;-6.00;99.90;;;;;;5067498;28;20071;-71
2024/01/11 01:53:04;;;;;;;0.82;0.82;;;-6.00;99.90;;;;;;5063446;28;20048;-71
2024/01/11 01:55:30;;;;;;;2.17;1.48;;;-6.00;99.90;;;;;;5062525;28;20390;-71
2024/01/11 01:57:57;;;;;;;12.13;3.35;;;-6.00;99.90;;;;;;5063179;28;20042;-71
2024/01/11 02:00:23;;;;;;;1.42;1.40;;;-6.00;99.90;;;;;;5066055;28;20487;-71
2024/01/11 02:02:52;;;;;;;0.85;0.85;;;-6.10;99.90;;;;;;5064231;28;20082;-71
2024/01/11 02:05:18;;;;;;;0.98;0.98;;;-6.10;99.90;;;;;;5064140;28;20079;-71
2024/01/11 02:07:44;;;;;;;0.82;0.82;;;-6.10;99.90;;;;;;5048195;28;20036;-71
2024/01/11 02:10:10;;;;;;;0.20;0.20;;;-6.10;99.90;;;;;;5066125;28;20154;-71
2024/01/11 02:12:37;;;;;;;0.22;0.22;;;-6.20;99.90;;;;;;5093300;28;20127;-70
2024/01/11 02:15:04;;;;;;;0.20;0.20;;;-6.20;99.90;;;;;;5065487;28;20046;-71
2024/01/11 02:17:30;;;;;;;0.95;0.95;;;-6.20;99.90;;;;;;5065585;28;20662;-71
2024/01/11 02:19:56;;;;;;;0.50;0.50;;;-6.30;99.90;;;;;;5059420;28;20541;-71
2024/01/11 02:22:29;;;;;;;1.88;0.80;;;-6.30;99.90;;;;;;5072890;28;20127;-71
2024/01/11 02:24:54;;;;;;;2.78;1.95;;;-6.30;99.90;;;;;;5068911;28;20126;-71
2024/01/11 02:27:20;;;;;;;2.28;0.88;;;-6.30;99.90;;;;;;5068178;28;20428;-70
2024/01/11 02:29:45;;;;;;;9.80;1.75;;;-6.30;99.90;;;;;;5059454;28;20037;-70
2024/01/11 02:32:12;;;;;;;2.20;1.48;;;-6.30;99.90;;;;;;5062577;28;20064;-70
2024/01/11 02:34:37;;;;;;;2.78;2.03;;;-6.30;99.90;;;;;;5066293;28;20061;-70
2024/01/11 02:37:04;;;;;;;6.00;1.83;;;-6.30;99.90;;;;;;5065662;28;20086;-70
2024/01/11 02:39:30;;;;;;;2.75;1.77;;;-6.40;99.90;;;;;;5047807;28;20047;-70
2024/01/11 02:41:58;;;;;;;4.65;1.52;;;-6.30;99.90;;;;;;5073014;28;20466;-70
2024/01/11 02:44:24;;;;;;;1.95;1.67;;;-6.30;99.90;;;;;;5076420;28;20709;-70
2024/01/11 02:46:49;;;;;;;4.57;1.48;;;-6.40;99.90;;;;;;5092280;28;20402;-70
2024/01/11 02:49:15;;;;;;;2.25;1.15;;;-6.40;99.90;;;;;;5062989;28;20040;-70
2024/01/11 02:51:40;;;;;;;3.70;1.85;;;-6.40;99.90;;;;;;5087762;28;20498;-70
2024/01/11 02:54:06;;;;;;;2.85;1.88;;;-6.50;99.90;;;;;;5064144;28;20047;-70
2024/01/11 02:56:32;;;;;;;3.20;2.33;;;-6.50;99.90;;;;;;5069122;28;20082;-70
2024/01/11 02:58:57;;;;;;;8.20;3.80;;;-6.50;99.90;;;;;;5066429;28;20462;-70
2024/01/11 03:01:23;;;;;;;1.90;1.80;;;-6.60;99.90;;;;;;5067608;28;20036;-70
2024/01/11 03:03:48;;;;;;;2.10;1.30;;;-6.60;99.90;;;;;;5069113;28;20743;-70
2024/01/11 03:06:14;;;;;;;0.70;0.70;;;-6.60;99.90;;;;;;5064286;28;20781;-70
2024/01/11 03:08:39;;;;;;;1.92;1.50;;;-6.60;99.90;;;;;;5064973;28;20463;-70
2024/01/11 03:11:05;;;;;;;0.25;0.25;;;-6.60;99.90;;;;;;5070681;28;20466;-70
2024/01/11 03:13:31;;;;;;;1.83;1.60;;;-6.60;99.90;;;;;;5059279;28;20625;-71
2024/01/11 03:15:57;;;;;;;5.72;1.75;;;-6.60;99.90;;;;;;5064882;28;20075;-70
2024/01/11 03:18:23;;;;;;;3.28;1.77;;;-6.60;99.90;;;;;;5071034;28;20576;-70
2024/01/11 03:20:48;;;;;;;2.83;2.53;;;-6.60;99.90;;;;;;5069860;28;20139;-70
2024/01/11 03:23:14;;;;;;;2.35;2.10;;;-6.50;99.90;;;;;;5062340;28;20036;-70
2024/01/11 03:25:39;;;;;;;4.20;3.05;;;-6.60;99.90;;;;;;5089441;28;20095;-70
2024/01/11 03:28:05;;;;;;;1.45;1.27;;;-6.50;99.90;;;;;;5046710;28;20047;-70
2024/01/11 03:30:30;;;;;;;1.40;1.30;;;-6.60;99.90;;;;;;5063140;28;20475;-70
2024/01/11 03:32:56;;;;;;;1.17;1.17;;;-6.60;99.90;;;;;;5066459;28;20063;-70
2024/01/11 03:35:21;;;;;;;1.23;0.88;;;-6.50;99.90;;;;;;5060253;28;20518;-70
2024/01/11 03:37:47;;;;;;;1.02;0.93;;;-6.50;99.90;;;;;;5063385;28;20047;-70
2024/01/11 03:40:14;;;;;;;1.58;1.48;;;-6.50;99.90;;;;;;5062771;28;20539;-70
2024/01/11 03:42:39;;;;;;;3.65;3.35;;;-6.50;99.90;;;;;;5055840;28;20044;-70
2024/01/11 03:45:05;;;;;;;4.20;2.72;;;-6.40;99.90;;;;;;5060185;28;20048;-70
2024/01/11 03:47:31;;;;;;;3.17;2.88;;;-6.30;99.90;;;;;;5071746;28;20115;-70
2024/01/11 03:49:57;;;;;;;0.95;0.82;;;-6.40;99.90;;;;;;5065397;28;20091;-70
2024/01/11 03:52:22;;;;;;;2.80;1.90;;;-6.40;99.90;;;;;;5062384;28;20040;-70
2024/01/11 03:54:48;;;;;;;0.47;0.47;;;-6.40;99.90;;;;;;5060136;28;20040;-70
2024/01/11 03:57:14;;;;;;;1.13;1.05;;;-6.40;99.90;;;;;;5063912;28;20065;-70
2024/01/11 03:59:40;;;;;;;0.28;0.28;;;-6.40;99.90;;;;;;5059340;28;20076;-70
2024/01/11 04:02:06;;;;;;;2.72;1.35;;;-6.40;99.90;;;;;;5092319;28;20044;-70
2024/01/11 04:04:32;;;;;;;0.70;0.70;;;-6.40;99.90;;;;;;5056194;28;20419;-70
2024/01/11 04:06:58;;;;;;;2.90;1.10;;;-6.50;99.90;;;;;;5064668;28;20043;-70
2024/01/11 04:09:23;;;;;;;1.27;1.17;;;-6.50;99.90;;;;;;5064163;28;20403;-70
2024/01/11 04:11:49;;;;;;;1.83;1.73;;;-6.50;99.90;;;;;;5086067;28;20182;-70
2024/01/11 04:14:14;;;;;;;17.27;2.80;;;-6.50;99.90;;;;;;5063456;28;20036;-70
2024/01/11 04:16:41;;;;;;;2.55;2.35;;;-6.50;99.90;;;;;;5065217;28;20032;-70
2024/01/11 04:19:07;;;;;;;1.85;1.52;;;-6.50;99.90;;;;;;5059452;28;20044;-70
2024/01/11 04:21:32;;;;;;;1.63;1.60;;;-6.50;99.90;;;;;;5066167;28;20239;-70
2024/01/11 04:23:58;;;;;;;1.20;1.10;;;-6.50;99.90;;;;;;5064327;28;20053;-70
2024/01/11 04:26:23;;;;;;;0.13;0.13;;;-6.50;99.90;;;;;;5065187;28;20507;-70
2024/01/11 04:28:50;;;;;;;0.57;0.57;;;-6.50;99.90;;;;;;5065349;28;20040;-70
2024/01/11 04:31:16;;;;;;;9.52;1.27;;;-6.50;99.90;;;;;;5063209;28;20392;-70
2024/01/11 04:33:43;;;;;;;3.72;2.90;;;-6.50;99.90;;;;;;5070176;28;20044;-70
2024/01/11 04:36:09;;;;;;;0.55;0.55;;;-6.60;99.90;;;;;;5059045;28;20049;-70
2024/01/11 04:38:35;;;;;;;0.63;0.63;;;-6.50;99.90;;;;;;5062415;28;20056;-70
2024/01/11 04:41:00;;;;;;;2.72;2.53;;;-6.50;99.90;;;;;;5088864;28;20052;-70
2024/01/11 04:43:26;;;;;;;3.10;2.90;;;-6.50;99.90;;;;;;5071094;28;20120;-70
2024/01/11 04:45:52;;;;;;;1.40;1.23;;;-6.50;99.90;;;;;;5066042;28;20117;-70
2024/01/11 04:48:18;;;;;;;2.47;1.42;;;-6.50;99.90;;;;;;5086016;28;20191;-70
2024/01/11 04:50:44;;;;;;;2.90;1.65;;;-6.50;99.90;;;;;;5066697;28;20056;-70
2024/01/11 04:53:10;;;;;;;0.80;0.80;;;-6.50;99.90;;;;;;5057794;28;20398;-70
2024/01/11 04:55:35;;;;;;;1.17;1.02;;;-6.50;99.90;;;;;;5061810;28;20029;-70
2024/01/11 04:58:01;;;;;;;1.02;1.02;;;-6.50;99.90;;;;;;5064095;28;20440;-70
2024/01/11 05:00:26;;;;;;;2.17;2.05;;;-6.50;99.90;;;;;;5068926;28;20051;-70
2024/01/11 05:02:52;;;;;;;3.17;2.70;;;-6.50;99.90;;;;;;5063056;28;20159;-70
2024/01/11 05:05:17;;;;;;;3.35;2.67;;;-6.50;99.90;;;;;;5047863;28;20047;-70
2024/01/11 05:07:43;;;;;;;1.00;1.00;;;-6.50;99.90;;;;;;5062886;28;20147;-70
2024/01/11 05:10:08;;;;;;;8.68;2.28;;;-6.50;99.90;;;;;;5066822;28;20402;-70
2024/01/11 05:12:35;;;;;;;2.50;2.30;;;-6.40;99.90;;;;;;5046943;28;20110;-70
2024/01/11 05:15:00;;;;;;;2.45;2.25;;;-6.40;99.90;;;;;;5064667;28;20044;-70
2024/01/11 05:17:27;;;;;;;1.17;1.17;;;-6.50;99.90;;;;;;5064595;28;20036;-70
2024/01/11 05:19:52;;;;;;;3.70;2.47;;;-6.50;99.90;;;;;;5063423;28;20051;-70
2024/01/11 05:22:18;;;;;;;2.38;2.20;;;-6.40;99.90;;;;;;5066438;28;20032;-70
2024/01/11 05:24:43;;;;;;;0.93;0.93;;;-6.50;99.90;;;;;;5066652;28;20047;-70
2024/01/11 05:27:09;;;;;;;4.15;1.20;;;-6.50;99.90;;;;;;5062961;28;20399;-70
2024/01/11 05:29:34;;;;;;;1.15;1.15;;;-6.50;99.90;;;;;;5064501;28;20034;-70
2024/01/11 05:32:00;;;;;;;3.03;2.42;;;-6.60;99.90;;;;;;5060386;28;20040;-70
2024/01/11 05:34:26;;;;;;;3.92;1.15;;;-6.60;99.90;;;;;;5063112;28;20040;-70
2024/01/11 05:36:51;;;;;;;3.17;2.97;;;-6.60;99.90;;;;;;5058485;28;20072;-70
2024/01/11 05:39:17;;;;;;;3.03;2.25;;;-6.50;99.90;;;;;;5065398;28;20048;-70
2024/01/11 05:41:45;;;;;;;1.50;1.45;;;-6.60;99.90;;;;;;5070763;28;20064;-70
2024/01/11 05:44:11;;;;;;;1.40;1.08;;;-6.60;99.90;;;;;;5090289;28;20121;-70
2024/01/11 05:46:37;;;;;;;1.95;1.77;;;-6.50;99.90;;;;;;5067197;28;20135;-70
2024/01/11 05:49:03;;;;;;;2.22;1.00;;;-6.60;99.90;;;;;;5066486;28;20174;-70
2024/01/11 05:51:28;;;;;;;1.77;1.42;;;-6.60;99.90;;;;;;5065000;28;20047;-70
2024/01/11 05:53:55;;;;;;;2.17;1.25;;;-6.50;99.90;;;;;;5050315;28;20047;-70
2024/01/11 05:56:20;;;;;;;0.50;0.50;;;-6.50;99.90;;;;;;5091611;28;20049;-70
2024/01/11 05:58:46;;;;;;;0.73;0.73;;;-6.50;99.90;;;;;;5070053;28;20047;-70
2024/01/11 06:01:12;;;;;;;0.68;0.68;;;-6.50;99.90;;;;;;5065183;28;20048;-70
2024/01/11 06:03:38;;;;;;;1.05;1.05;;;-6.50;99.90;;;;;;5066367;28;20135;-70
2024/01/11 06:06:05;;;;;;;4.35;2.10;;;-6.50;99.90;;;;;;5064911;28;20044;-70
2024/01/11 06:08:31;;;;;;;0.52;0.52;;;-6.50;99.90;;;;;;5065042;28;20102;-70
2024/01/11 06:10:57;;;;;;;4.30;1.52;;;-6.50;99.90;;;;;;5068990;28;20076;-70
2024/01/11 06:13:23;;;;;;;1.10;0.80;;;-6.50;99.90;;;;;;5066892;28;20377;-70
2024/01/11 06:15:50;;;;;;;1.52;1.42;;;-6.50;99.90;;;;;;5064249;28;20048;-70
2024/01/11 06:18:16;;;;;;;1.52;1.48;;;-6.60;99.90;;;;;;5051696;28;20039;-70
2024/01/11 06:20:41;;;;;;;2.63;1.58;;;-6.60;99.90;;;;;;5054686;28;20052;-70
2024/01/11 06:23:07;;;;;;;1.77;1.67;;;-6.50;99.90;;;;;;5064879;28;20109;-70
2024/01/11 06:25:33;;;;;;;0.77;0.77;;;-6.40;99.90;;;;;;5067340;28;20055;-70
2024/01/11 06:27:59;;;;;;;0.70;0.70;;;-6.30;99.90;;;;;;5062959;28;20090;-70
2024/01/11 06:30:24;;;;;;;0.95;0.95;;;-6.20;99.90;;;;;;5067748;28;20028;-70
2024/01/11 06:32:50;;;;;;;0.52;0.52;;;-6.10;99.90;;;;;;5064435;28;20041;-70
2024/01/11 06:35:16;;;;;;;1.20;0.82;;;-6.00;99.90;;;;;;5051495;28;20033;-70
2024/01/11 06:37:41;;;;;;;2.75;1.40;;;-5.90;99.90;;;;;;5065742;28;20051;-70
2024/01/11 06:40:08;;;;;;;3.40;0.70;;;-5.80;99.90;;;;;;5065837;28;20081;-70
2024/01/11 06:42:34;;;;;;;0.38;0.30;;;-5.70;99.90;;;;;;5063246;28;20098;-70
2024/01/11 06:44:59;;;;;;;3.30;1.98;;;-5.60;99.90;;;;;;5065004;28;20044;-70
2024/01/11 06:47:25;;;;;;;1.65;1.55;;;-5.50;99.90;;;;;;5062018;28;20044;-70
2024/01/11 06:49:51;;;;;;;0.88;0.88;;;-5.40;99.90;;;;;;5060370;28;20074;-70
2024/01/11 06:52:17;;;;;;;1.15;0.60;;;-5.30;99.90;;;;;;5063205;28;20036;-70
2024/01/11 06:54:42;;;;;;;1.35;0.47;;;-5.30;99.90;;;;;;5066604;28;20041;-70
2024/01/11 06:57:08;;;;;;;0.28;0.28;;;-5.20;99.90;;;;;;5049556;28;20040;-70
2024/01/11 06:59:33;;;;;;;1.58;1.48;;;-5.20;99.90;;;;;;5064996;28;20049;-70
2024/01/11 07:01:59;;;;;;;0.95;0.57;;;-5.00;99.90;;;;;;5040529;28;20044;-70
2024/01/11 07:04:25;;;;;;;0.50;0.50;;;-5.00;99.90;;;;;;5066902;28;20039;-70
2024/01/11 07:06:50;;;;;;;2.13;1.48;;;-4.90;99.90;;;;;;5067113;28;20424;-70
2024/01/11 07:09:16;;;;;;;0.22;0.22;;;-4.90;99.90;;;;;;5065123;28;20637;-70
2024/01/11 07:11:43;;;;;;;1.27;0.77;;;-4.80;99.90;;;;;;5065825;28;20041;-70
2024/01/11 07:14:09;;;;;;;0.57;0.57;;;-4.70;99.90;;;;;;5067670;28;20032;-70
2024/01/11 07:16:35;;;;;;;0.75;0.73;;;-4.60;99.90;;;;;;5073078;28;20531;-71
2024/01/11 07:19:00;;;;;;;0.30;0.30;;;-4.60;99.90;;;;;;5063200;28;20375;-70
2024/01/11 07:21:29;;;;;;;0.38;0.38;;;-4.50;99.90;;;;;;5069791;28;20051;-70
2024/01/11 07:24:01;;;;;;;0.10;0.10;;;-4.50;99.90;;;;;;5065101;28;20504;-71
2024/01/11 07:26:27;;;;;;;0.10;0.10;;;-4.40;99.90;;;;;;5065234;28;20116;-70
2024/01/11 07:28:56;;;;;;;1.15;0.95;;;-4.30;99.90;;;;;;5065568;28;20132;-71
2024/01/11 07:31:21;;;;;;;1.35;1.08;;;-4.30;99.90;;;;;;5064107;28;20044;-71
2024/01/11 07:33:47;;;;;;;0.85;0.85;;;-4.30;99.90;;;;;;5066243;28;20037;-71
2024/01/11 07:36:13;;;;;;;5.15;1.50;;;-4.20;99.90;;;;;;5060346;28;20036;-71
2024/01/11 07:38:39;;;;;;;2.83;2.40;;;-4.20;99.90;;;;;;5063454;28;20041;-71
2024/01/11 07:41:04;;;;;;;0.63;0.30;;;-4.10;99.90;;;;;;5084122;28;20051;-71
2024/01/11 07:43:32;;;;;;;1.90;1.40;;;-4.10;99.90;;;;;;5062562;28;20039;-71
2024/01/11 07:45:57;;;;;;;0.30;0.30;;;-4.00;99.90;;;;;;5064737;28;20475;-71
2024/01/11 07:48:24;;;;;;;1.00;1.00;;;-4.00;99.90;;;;;;5061521;28;20049;-71
2024/01/11 07:50:49;;;;;;;1.10;1.00;;;-4.00;99.90;;;;;;5065139;28;20055;-71
2024/01/11 07:53:15;;;;;;;1.83;1.10;;;-3.90;99.90;;;;;;5056688;28;20040;-71
2024/01/11 07:55:41;;;;;;;0.95;0.93;;;-3.90;99.90;;;;;;5066004;28;20486;-71
2024/01/11 07:58:07;;;;;;;0.15;0.15;;;-3.90;99.90;;;;;;5062745;28;20320;-71
2024/01/11 08:00:33;;;;;;;2.22;1.33;;;-3.80;99.90;;;;;;5067655;28;20036;-71
2024/01/11 08:02:59;;;;;;;4.40;1.42;;;-3.80;99.90;;;;;;5058082;28;20036;-71
2024/01/11 08:05:25;;;;;;;2.25;1.65;;;-3.70;99.90;;;;;;5049393;28;20544;-71
2024/01/11 08:07:51;;;;;;;1.02;1.02;;;-3.70;99.90;;;;;;5060713;28;20063;-71
2024/01/11 08:10:16;;;;;;;0.47;0.47;;;-3.60;99.90;;;;;;5061452;28;20469;-71
2024/01/11 08:12:42;;;;;;;2.45;1.77;;;-3.60;99.90;;;;;;5066976;28;20089;-71
2024/01/11 08:15:12;;;;;;;1.55;1.08;;;-3.50;99.90;;;;;;5066321;28;20127;-71
2024/01/11 08:17:46;;;;;;;0.47;0.47;;;-3.50;99.90;;;;;;5061418;28;20897;-71
2024/01/11 08:20:12;;;;;;;1.27;1.20;;;-3.40;99.90;;;;;;5067698;28;20036;-71
2024/01/11 08:22:43;;;;;;;13.00;1.55;;;-3.40;99.90;;;;;;5058843;28;20041;-71
2024/01/11 08:25:09;;;;;;;1.15;1.15;;;-3.30;99.90;;;;;;5065779;28;20037;-71
2024/01/11 08:27:34;;;;;;;0.88;0.88;;;-3.20;99.90;;;;;;5060774;28;20444;-71
2024/01/11 08:30:00;;;;;;;2.42;1.20;;;-3.30;99.90;;;;;;5061926;28;20033;-71
2024/01/11 08:32:26;;;;;;;1.35;1.25;;;-3.20;99.90;;;;;;5068279;28;20032;-71
2024/01/11 08:34:52;;;;;;;2.83;1.08;;;-3.20;99.90;;;;;;5067445;28;20089;-71
2024/01/11 08:37:17;;;;;;;3.13;1.35;;;-3.10;99.90;;;;;;5063195;28;20501;-71
2024/01/11 08:39:43;;;;;;;2.95;1.70;;;-3.10;99.90;;;;;;5067410;28;20047;-71
2024/01/11 08:42:08;;;;;;;0.60;0.60;;;-3.10;99.90;;;;;;5063734;28;20082;-71
2024/01/11 08:44:34;;;;;;;0.60;0.60;;;-3.00;99.90;;;;;;5049374;28;20498;-71
2024/01/11 08:47:00;;;;;;;1.08;1.08;;;-2.90;99.90;;;;;;5063667;28;20479;-71
2024/01/11 08:49:25;;;;;;;3.00;2.70;;;-2.90;99.90;;;;;;5066984;28;20479;-72
2024/01/11 08:51:51;;;;;;;0.43;0.43;;;-2.80;99.90;;;;;;5061583;28;20052;-71
2024/01/11 08:54:17;;;;;;;0.90;0.75;;;-2.80;99.90;;;;;;5063457;28;20052;-71
2024/01/11 08:56:42;;;;;;;1.58;1.48;;;-2.80;99.90;;;;;;5066664;28;20036;-71
2024/01/11 08:59:08;;;;;;;4.38;1.27;;;-2.70;99.90;;;;;;5062939;28;20045;-72
2024/01/11 09:01:35;;;;;;;1.38;1.20;;;-2.60;99.90;;;;;;5063917;28;20065;-72
2024/01/11 09:04:01;;;;;;;1.77;1.67;;;-2.60;99.90;;;;;;5059870;28;20040;-72
2024/01/11 09:06:27;;;;;;;0.63;0.63;;;-2.50;99.90;;;;;;5062802;28;20045;-71
2024/01/11 09:08:53;;;;;;;1.15;1.08;;;-2.50;99.90;;;;;;5060923;28;20051;-72
2024/01/11 09:11:19;;;;;;;5.13;0.98;;;-2.40;99.90;;;;;;5060669;28;20041;-72
2024/01/11 09:13:44;;;;;;;5.15;3.20;;;-2.40;99.90;;;;;;5057918;28;20124;-72
2024/01/11 09:16:13;;;;;;;3.13;1.05;;;-2.30;99.90;;;;;;5060295;28;20066;-72
2024/01/11 09:18:39;;;;;;;14.50;2.33;;;-2.30;99.90;;;;;;5064446;28;20064;-72
2024/01/11 09:21:04;;;;;;;1.33;1.27;;;-2.30;99.90;;;;;;5071226;28;20036;-72
2024/01/11 09:23:30;;;;;;;1.65;1.55;;;-2.20;99.90;;;;;;5051622;28;20048;-72
2024/01/11 09:25:55;;;;;;;0.60;0.45;;;-2.20;99.90;;;;;;5068092;28;20044;-72
2024/01/11 09:28:21;;;;;;;2.75;1.58;;;-2.10;99.90;;;;;;5062783;28;20083;-72
2024/01/11 09:30:47;;;;;;;28.65;11.18;;;-2.10;99.90;;;;;;5073028;28;20086;-72
2024/01/11 09:33:12;;;;;;;24.80;15.02;;;-2.00;99.90;;;;;;5052655;28;20462;-72
2024/01/11 09:35:38;;;;;;;11.57;8.52;;;-2.00;99.90;;;;;;5057436;28;20040;-72
2024/01/11 09:38:03;;;;;;;24.77;10.07;;;-1.90;99.90;;;;;;5065138;28;20472;-72
2024/01/11 09:40:29;;;;;;;30.50;9.68;;;-1.90;99.90;;;;;;5062954;28;20036;-72
2024/01/11 09:42:55;;;;;;;6.00;4.68;;;-1.80;99.90;;;;;;5062778;28;20091;-72
2024/01/11 09:45:21;;;;;;;8.70;4.75;;;-1.70;99.90;;;;;;5069474;28;20039;-72
2024/01/11 09:47:47;;;;;;;6.57;4.25;;;-1.70;99.90;;;;;;5064306;28;20561;-72
2024/01/11 09:50:17;;;;;;;5.15;2.80;;;-1.60;99.90;;;;;;5090014;28;20139;-72
2024/01/11 09:52:47;;;;;;;4.60;3.53;;;-1.60;99.90;;;;;;5096250;28;20458;-72
2024/01/11 09:55:13;;;;;;;3.30;2.05;;;-1.50;99.90;;;;;;5063202;28;20097;-72
2024/01/11 09:57:45;;;;;;;3.75;2.33;;;-1.50;99.90;;;;;;5056412;28;20132;-72
2024/01/11 10:00:13;;;;;;;5.57;2.25;;;-1.40;99.90;;;;;;5069479;28;20048;-73
2024/01/11 10:02:39;;;;;;;2.95;1.77;;;-1.40;99.90;;;;;;5067894;28;20039;-72
2024/01/11 10:05:06;;;;;;;5.40;2.67;;;-1.30;99.90;;;;;;5074234;28;20259;-73
2024/01/11 10:07:33;;;;;;;5.30;2.42;;;-1.20;99.90;;;;;;5063809;28;20098;-72
2024/01/11 10:10:00;;;;;;;2.10;1.27;;;-1.20;99.90;;;;;;5059399;28;20098;-73
2024/01/11 10:12:27;;;;;;;19.90;4.32;;;-1.10;99.90;;;;;;5051205;28;20058;-73
2024/01/11 10:14:53;;;;;;;2.10;1.13;;;-1.10;99.90;;;;;;5064963;28;20036;-73
2024/01/11 10:17:19;;;;;;;6.53;3.55;;;-1.00;99.90;;;;;;5065510;28;20449;-73
2024/01/11 10:19:44;;;;;;;12.65;3.20;;;-1.00;99.90;;;;;;5055727;28;20436;-73
2024/01/11 10:22:12;;;;;;;11.30;4.70;;;-0.90;99.90;;;;;;5060527;28;20090;-73
2024/01/11 10:24:39;;;;;;;4.03;2.80;;;-0.90;99.90;;;;;;5060169;28;20384;-73
2024/01/11 10:27:08;;;;;;;4.88;1.98;;;-0.80;99.90;;;;;;5063102;28;20120;-73
2024/01/11 10:29:36;;;;;;;8.13;2.38;;;-0.80;99.90;;;;;;5060386;28;20476;-72
2024/01/11 10:32:03;;;;;;;3.40;2.00;;;-0.70;99.90;;;;;;5063124;28;20045;-73
2024/01/11 10:34:28;;;;;;;2.13;1.42;;;-0.60;99.90;;;;;;5060278;28;20433;-72
2024/01/11 10:36:54;;;;;;;10.05;2.55;;;-0.60;99.90;;;;;;5066759;28;20040;-73
2024/01/11 10:39:25;;;;;;;7.13;2.13;;;-0.50;99.90;;;;;;5064630;28;20102;-72
2024/01/11 10:41:56;;;;;;;7.60;1.83;;;-0.50;99.90;;;;;;5059583;28;20438;-72
2024/01/11 10:44:22;;;;;;;4.57;2.40;;;-0.40;99.90;;;;;;5085860;28;20060;-72
2024/01/11 10:46:49;;;;;;;5.10;2.58;;;-0.40;99.90;;;;;;5056987;28;20087;-73
2024/01/11 10:49:18;;;;;;;5.70;2.28;;;-0.30;99.90;;;;;;5056214;28;20052;-72
2024/01/11 10:52:01;;;;;;;4.70;1.70;;;-0.30;99.90;;;;;;5063334;28;20047;-72
2024/01/11 10:54:31;;;;;;;3.55;3.25;;;-0.20;99.90;;;;;;5059780;28;20124;-72
2024/01/11 10:57:04;;;;;;;7.25;3.05;;;-0.20;99.90;;;;;;5072580;28;20075;-72
2024/01/11 10:59:30;;;;;;;;;;;-0.10;99.90;;;;;;5061216;28;20048;-72
2024/01/11 11:01:58;;;;;;;1.90;1.55;;;-0.10;99.90;;;;;;5069294;28;20268;-72
2024/01/11 11:04:24;;;;;;;7.93;3.78;;;-0.10;99.90;;;;;;5056700;28;20048;-72
2024/01/11 11:06:58;;;;;;;5.13;1.85;;;0.00;99.90;;;;;;5066853;28;20122;-72
2024/01/11 11:09:25;;;;;;;6.78;3.33;;;0.00;99.90;;;;;;5063431;28;20041;-72
2024/01/11 11:11:55;;;;;;;2.90;2.22;;;0.10;99.90;;;;;;5065139;28;20040;-72
2024/01/11 11:14:22;;;;;;;9.20;3.00;;;0.10;99.90;;;;;;5063001;28;20090;-72
2024/01/11 11:16:48;;;;;;;6.25;1.73;;;0.10;99.90;;;;;;5088678;28;20414;-72
2024/01/11 11:19:14;;;;;;;2.88;1.42;;;0.20;99.90;;;;;;5092057;28;20044;-72
2024/01/11 11:21:44;;;;;;;3.00;1.42;;;0.20;99.90;;;;;;5062094;28;20480;-72
2024/01/11 11:24:11;;;;;;;4.90;3.33;;;0.30;99.90;;;;;;5053677;28;20555;-72
2024/01/11 11:26:36;;;;;;;3.33;2.30;;;0.30;99.90;;;;;;5055772;28;20063;-72
2024/01/11 11:29:05;;;;;;;3.25;2.65;;;0.30;99.90;;;;;;5085623;28;20041;-72
2024/01/11 11:31:53;;;;;;;1.90;1.77;;;0.40;99.90;;;;;;5057625;28;20120;-72
2024/01/11 11:34:19;;;;;;;2.92;2.67;;;0.40;99.90;;;;;;5062657;28;20076;-72
2024/01/11 11:36:54;;;;;;;3.03;2.65;;;0.50;99.90;;;;;;5065520;28;20127;-72
2024/01/11 11:39:21;;;;;;;2.08;1.98;;;0.50;99.90;;;;;;5087611;28;20037;-72
2024/01/11 11:41:49;;;;;;;3.83;2.80;;;0.50;99.90;;;;;;5061979;28;20076;-72
2024/01/11 11:44:16;;;;;;;3.35;2.42;;;0.60;99.90;;;;;;5059454;28;20068;-72
2024/01/11 11:46:43;;;;;;;3.38;2.40;;;0.60;99.90;;;;;;5088672;28;20072;-72
2024/01/11 11:49:10;;;;;;;2.33;2.15;;;0.60;99.90;;;;;;5083715;28;20037;-73
2024/01/11 11:51:39;;;;;;;3.28;1.80;;;0.70;99.90;;;;;;5048069;28;20403;-73
2024/01/11 11:54:09;;;;;;;3.20;1.40;;;0.70;99.90;;;;;;5044591;28;20036;-74
2024/01/11 11:56:35;;;;;;;4.40;1.70;;;0.80;99.90;;;;;;5063824;28;20130;-73
2024/01/11 11:59:03;;;;;;;2.17;1.67;;;0.80;99.90;;;;;;5087822;28;20119;-73
2024/01/11 12:01:31;;;;;;;5.00;2.15;;;0.80;99.90;;;;;;5063425;28;20442;-73
2024/01/11 12:03:57;;;;;;;3.85;2.50;;;0.80;99.90;;;;;;5061117;28;20251;-73
2024/01/11 12:06:24;;;;;;;8.23;3.03;;;0.80;99.90;;;;;;5045508;28;20048;-73
2024/01/11 12:08:52;;;;;;;7.70;3.40;;;0.90;99.90;;;;;;5084145;28;20047;-73
2024/01/11 12:11:20;;;;;;;16.40;2.05;;;0.90;99.90;;;;;;5064949;28;20041;-73
2024/01/11 12:13:47;;;;;;;2.35;2.25;;;0.90;99.90;;;;;;5047744;28;20039;-73
2024/01/11 12:16:13;;;;;;;4.13;2.38;;;0.90;99.90;;;;;;5061652;28;20036;-73
2024/01/11 12:18:39;;;;;;;2.45;2.25;;;1.00;99.90;;;;;;5064804;28;20032;-73
2024/01/11 12:21:05;;;;;;;4.93;0.82;;;1.00;99.90;;;;;;5061951;28;20032;-73
2024/01/11 12:23:34;;;;;;;1.60;1.45;;;1.00;99.90;;;;;;5066336;28;20087;-73
2024/01/11 12:26:02;;;;;;;8.18;2.15;;;1.00;99.90;;;;;;5073902;28;20035;-73
2024/01/11 12:28:27;;;;;;;4.47;3.80;;;1.00;99.90;;;;;;5086438;28;20055;-73
2024/01/11 12:30:53;;;;;;;3.15;1.90;;;1.00;99.90;;;;;;5088982;28;20394;-73
2024/01/11 12:33:19;;;;;;;10.43;1.88;;;1.00;99.90;;;;;;5063282;28;20124;-73
2024/01/11 12:35:45;;;;;;;1.77;0.98;;;1.00;99.90;;;;;;5058884;28;20036;-73
2024/01/11 12:38:11;;;;;;;7.13;1.52;;;1.00;99.90;;;;;;5066972;28;20037;-73
2024/01/11 12:40:38;;;;;;;5.95;3.08;;;1.10;99.90;;;;;;5059851;28;20064;-72
2024/01/11 12:43:04;;;;;;;4.80;1.60;;;1.10;99.90;;;;;;5095307;28;20055;-73